Kashan, Iran

1:44 PM IRDT on July 23, 2016 (GMT +0430)
Kashan | | Change Station

Elev 3222 ft 33.98 °N, 51.45 °E | Updated 1 hour ago

Clear
Clear
104 °F
Feels Like 104 °F
N
7
Wind Variable Wind from WNW

Today
High -- | Low -- °F
--% Chance of Precip.
Yesterday
High -- | Low -- °F
Precip. -- in
Pressure 29.71 in
Visibility -9999.0 miles
Clouds
Dew Point 52 °F
Humidity 17%
Rainfall 0.00 in
Snow Depth Not available.
6:09 AM 8:11 PM
Waning Gibbous, 86% visible
METAR OIFK 230800Z 30006KT CAVOK 40/11 Q1006
Pressure 29.71 in
Visibility -9999.0 miles
Clouds
Dew Point 52 °F
Humidity 17%
Rainfall 0.00 in
Snow Depth Not available.
6:09 AM 8:11 PM
Waning Gibbous, 86% visible
METAR OIFK 230800Z 30006KT CAVOK 40/11 Q1006

10-Day Weather Forecast

No radar image for this location.
×

Almanac

Astronomy

Jul. 23, 2016 Rise Set
Actual Time
Civil Twilight
Nautical Twilight
Astronomical Twilight
Moon
Length of Visible Light
Length of Day
Tomorrow will be .
, % of the Moon is Illuminated

Today's Extremes

Country Highs Country Lows

Community

WunderPhotos

Upload Photos

1,926,790 photos uploaded!

WunderBlog® & News

Nearby

Air Quality

  Air Quality AQ Index Pollutant
Not available.

Snow Depth

Station Depth Elevation

Earthquake Activity

City Distance Mag. Time & Date
Minimum magnitude displayed is 2.5.

Coastal Water Temperatures

Place Temperature

Stations

Nearby Weather Stations

Station Location Temp. Windchill Dew Point Humidity Wind Precip. Elev Updated Type